메인 페이지
METAR-TAF:

METAR-TAF

공항 :

세이셸 국제공항

빅토리아, 마에 섬, 세이셸

위도: 04-40S, 경도: 055-31E, 고도: 3m

현재 날씨관측

예보는 27분 전, 19:00시(UTC)에 발표되었습니다.
남동8kt
온도 24°C
습도 89%
기압 1013 hPa
시정 10km 이상
고도 700ft 상공 구름 조금
고도 2000ft 상공 구름 많음
약한소나기

METAR: FSIA 201900Z 14008KT 9999 -SHRA FEW007 BKN020 24/22 Q1013 NOSIG

시각: 23:27 (19:27 UTC)

예보

예보는 2 시간 24분 전, 17:03시(UTC)에 발표되었습니다.
예보 대상 시간: 20일 18시부터 21일 18시까지 (UTC)
남남동10kt, 순간 최대 풍속 20kt
시정 10km 이상
고도 1600ft 상공 구름 보통
고도 8000ft 상공 구름 많음
일시적
20일 18시부터 21일 06시까지 (UTC)
고도 1200ft 상공 구름 조금
고도 1400ft 상공 구름 많음
약한소나기
일시적
21일 06시부터 21일 12시까지 (UTC)
시정: 8000m
고도 1000ft 상공 구름 조금
고도 1600ft 상공 구름 많음
약한소나기
확률 40% :
일시적
21일 12시부터 21일 18시까지 (UTC)
고도 1200ft 상공 구름 조금
고도 1800ft 상공 구름 많음
약한소나기

TAF: FSIA 201703Z 2018/2118 15010G20KT 9999 SCT016 BKN080 TEMPO 2018/2106 -SHRA FEW012 BKN014 TEMPO 2106/2112 8000 -SHRA FEW010 BKN016 PROB40 TEMPO 2112/2118 -SHRA FEW012 BKN018

4,000개 이상의 공항 관측 자료 및 예보 (METAR 및 TAF 보고).

지도상에서 검색 가능한 기상관측소가 노란 점과 빨간 점으로 표시되어 있습니다.

기상관측소 명을 보려면 표시 위로 마우스를 이동하세요.

날씨 관측과 예보를 보려면 클릭하세요.

지도 변경 : 확대하려면 엑스 표시가 있는 녹색 버튼, 축소하려면 빼기 표시가 있는 녹색 버튼, 다음 페이지의 지도를 보려면 녹색 화살표를 클릭하세요.


METAR-TAF: